createdAt,value
2022-08-16T00:01:26.595Z,63.32
2022-08-16T00:04:01.951Z,63.37
2022-08-16T00:06:33.197Z,63.37
2022-08-16T00:09:01.277Z,63.72
2022-08-16T00:11:29.159Z,63.60
2022-08-16T00:13:57.373Z,64.08
2022-08-16T00:17:01.327Z,64.41
2022-08-16T00:19:28.208Z,64.98
2022-08-16T00:22:03.037Z,65.33
2022-08-16T00:24:34.861Z,65.23
2022-08-16T00:27:04.956Z,64.96
2022-08-16T00:29:33.362Z,65.09
2022-08-16T00:32:06.588Z,64.81
2022-08-16T00:34:44.457Z,64.85
2022-08-16T00:37:58.553Z,65.16
2022-08-16T00:40:36.913Z,65.28
2022-08-16T00:43:21.594Z,65.53
2022-08-16T00:46:22.405Z,65.89
2022-08-16T00:48:54.208Z,66.57
2022-08-16T00:51:26.122Z,66.56
2022-08-16T00:53:57.766Z,67.27
2022-08-16T00:56:56.355Z,67.12
2022-08-16T00:59:26.019Z,67.03
2022-08-16T01:01:54.909Z,67.21
2022-08-16T01:04:30.081Z,67.86
2022-08-16T01:07:03.780Z,67.86
2022-08-16T01:09:42.769Z,67.66
2022-08-16T01:12:12.038Z,67.72
2022-08-16T01:15:00.154Z,67.61
2022-08-16T01:17:36.954Z,67.76
2022-08-16T01:20:23.592Z,68.12
2022-08-16T01:23:17.112Z,68.10
2022-08-16T01:25:59.886Z,68.52
2022-08-16T01:28:45.515Z,68.70
2022-08-16T01:31:16.571Z,68.44
2022-08-16T01:33:45.702Z,68.30
2022-08-16T01:36:18.744Z,68.21
2022-08-16T01:38:54.186Z,67.86
2022-08-16T01:41:30.631Z,67.49
2022-08-16T01:44:01.665Z,67.52
2022-08-16T01:46:41.154Z,67.71
2022-08-16T01:49:23.433Z,67.94
2022-08-16T01:52:29.326Z,67.73
2022-08-16T01:55:22.182Z,68.02
2022-08-16T01:57:53.730Z,68.17
2022-08-16T02:00:28.818Z,68.12
2022-08-16T02:02:59.796Z,68.27
2022-08-16T02:05:30.575Z,68.48
2022-08-16T02:07:59.415Z,68.32
2022-08-16T02:10:28.029Z,68.29
2022-08-16T02:13:00.800Z,68.09
2022-08-16T02:15:35.596Z,68.38
2022-08-16T02:18:13.777Z,68.14
2022-08-16T02:20:53.760Z,68.69
2022-08-16T02:23:23.202Z,68.57
2022-08-16T02:25:54.015Z,68.47
2022-08-16T02:28:25.349Z,68.79
2022-08-16T02:30:56.523Z,68.75
2022-08-16T02:33:44.315Z,68.90
2022-08-16T02:36:42.244Z,68.92
2022-08-16T02:39:10.647Z,68.94
2022-08-16T02:41:41.945Z,68.99
2022-08-16T02:44:14.031Z,69.36
2022-08-16T02:46:50.414Z,69.71
2022-08-16T02:49:23.090Z,70.01
2022-08-16T02:52:24.891Z,70.02
2022-08-16T02:54:59.089Z,69.85
2022-08-16T02:57:27.697Z,69.83
2022-08-16T02:59:56.337Z,70.22
2022-08-16T03:02:32.073Z,70.35
2022-08-16T03:05:02.397Z,70.57
2022-08-16T03:07:36.973Z,70.66
2022-08-16T03:10:09.799Z,70.57
2022-08-16T03:12:56.457Z,70.41
2022-08-16T03:15:27.853Z,70.37
2022-08-16T03:17:56.734Z,70.18
2022-08-16T03:20:32.237Z,70.17
2022-08-16T03:23:02.175Z,70.31
2022-08-16T03:25:41.019Z,70.45
2022-08-16T03:28:13.212Z,70.56
2022-08-16T03:30:41.145Z,70.51
2022-08-16T03:33:10.929Z,70.72
2022-08-16T03:35:45.995Z,70.94
2022-08-16T03:38:32.627Z,71.08
2022-08-16T03:41:17.136Z,70.96
2022-08-16T03:43:56.246Z,70.94
2022-08-16T03:46:48.374Z,70.95
2022-08-16T03:49:18.054Z,71.11
2022-08-16T03:51:48.180Z,70.95
2022-08-16T03:54:22.510Z,70.95
2022-08-16T03:56:56.906Z,71.14
2022-08-16T03:59:29.397Z,71.36
2022-08-16T04:02:00.754Z,71.55
2022-08-16T04:04:32.839Z,71.52
2022-08-16T04:07:07.784Z,71.57
2022-08-16T04:09:38.994Z,71.36
2022-08-16T04:12:53.705Z,71.49
2022-08-16T04:15:02.358Z,71.94
2022-08-16T04:17:30.897Z,72.04
2022-08-16T04:19:59.778Z,72.06
2022-08-16T04:22:28.259Z,71.97
2022-08-16T04:25:01.103Z,72.08
2022-08-16T04:27:34.628Z,72.45
2022-08-16T04:30:10.977Z,72.52
2022-08-16T04:32:43.906Z,72.57
2022-08-16T04:35:23.263Z,72.50
2022-08-16T04:37:53.971Z,72.25
2022-08-16T04:40:27.468Z,72.81
2022-08-16T04:42:56.061Z,73.09
2022-08-16T04:45:35.825Z,72.63
2022-08-16T04:48:28.263Z,72.30
2022-08-16T04:51:01.180Z,72.63
2022-08-16T04:53:41.519Z,72.66
2022-08-16T04:56:11.155Z,72.38
2022-08-16T04:58:46.062Z,72.18
2022-08-16T05:01:18.048Z,72.31
2022-08-16T05:03:59.991Z,72.20
2022-08-16T05:06:42.146Z,72.04
2022-08-16T05:09:19.096Z,72.10
2022-08-16T05:11:51.850Z,72.04
2022-08-16T05:14:42.146Z,71.85
2022-08-16T05:17:08.104Z,71.74
2022-08-16T05:19:36.752Z,71.68
2022-08-16T05:22:18.301Z,71.59
2022-08-16T05:24:49.488Z,71.44
2022-08-16T05:27:23.499Z,71.41
2022-08-16T05:29:59.365Z,71.52
2022-08-16T05:32:33.005Z,71.29
2022-08-16T05:35:10.939Z,71.66
2022-08-16T05:37:41.967Z,71.95
2022-08-16T05:40:13.909Z,71.88
2022-08-16T05:42:46.095Z,71.38
2022-08-16T05:45:21.462Z,71.22
2022-08-16T05:47:59.837Z,71.13
2022-08-16T05:50:34.507Z,71.24
2022-08-16T05:53:03.271Z,71.17
2022-08-16T05:55:31.380Z,71.41
2022-08-16T05:58:03.683Z,71.66
2022-08-16T06:00:33.093Z,71.44
2022-08-16T06:03:01.271Z,71.24
2022-08-16T06:05:50.223Z,71.07
2022-08-16T06:08:32.306Z,70.96
2022-08-16T06:11:13.358Z,71.00
2022-08-16T06:13:43.434Z,71.01
2022-08-16T06:16:17.995Z,70.98
2022-08-16T06:18:48.138Z,71.06
2022-08-16T06:21:22.642Z,71.19
2022-08-16T06:23:54.174Z,71.09
2022-08-16T06:26:24.158Z,70.94
2022-08-16T06:29:04.959Z,70.83
2022-08-16T06:31:46.744Z,70.54
2022-08-16T06:34:55.442Z,70.63
2022-08-16T06:37:07.504Z,70.57
2022-08-16T06:39:49.203Z,70.14
2022-08-16T06:42:28.094Z,70.23
2022-08-16T06:45:12.029Z,70.42
2022-08-16T06:47:53.396Z,70.20
2022-08-16T06:50:28.594Z,69.46
2022-08-16T06:53:00.560Z,69.01
2022-08-16T06:55:35.095Z,69.02
2022-08-16T06:58:21.674Z,69.28
2022-08-16T07:00:52.093Z,69.68
2022-08-16T07:03:28.006Z,69.42
2022-08-16T07:06:00.790Z,69.24
2022-08-16T07:08:35.566Z,69.60
2022-08-16T07:11:05.419Z,69.64
2022-08-16T07:14:00.373Z,68.92
2022-08-16T07:16:27.639Z,68.76
2022-08-16T07:18:58.696Z,68.54
2022-08-16T07:21:54.341Z,69.10
2022-08-16T07:24:30.428Z,69.53
2022-08-16T07:27:03.044Z,69.95
2022-08-16T07:29:32.122Z,69.62
2022-08-16T07:32:01.300Z,68.97
2022-08-16T07:34:35.213Z,68.68
2022-08-16T07:37:11.079Z,68.03
2022-08-16T07:39:57.337Z,67.76
2022-08-16T07:42:34.869Z,67.75
2022-08-16T07:45:10.366Z,67.31
2022-08-16T07:47:42.348Z,67.12
2022-08-16T07:50:57.921Z,66.80
2022-08-16T07:53:02.505Z,65.92
2022-08-16T07:55:45.437Z,65.93
2022-08-16T07:58:18.465Z,65.48
2022-08-16T08:01:10.657Z,65.43
2022-08-16T08:03:48.849Z,64.91
2022-08-16T08:06:24.952Z,64.77
2022-08-16T08:08:57.143Z,64.47
2022-08-16T08:11:29.854Z,64.65
2022-08-16T08:14:03.919Z,64.05
2022-08-16T08:16:39.545Z,63.23
2022-08-16T08:19:20.191Z,62.66
2022-08-16T08:22:01.116Z,61.90
2022-08-16T08:24:45.239Z,61.64
2022-08-16T08:27:22.419Z,61.58
2022-08-16T08:30:49.447Z,60.35
2022-08-16T08:32:57.255Z,60.17
2022-08-16T08:35:28.515Z,59.65
2022-08-16T08:37:56.934Z,59.58
2022-08-16T08:40:30.042Z,58.83
2022-08-16T08:43:12.119Z,58.84
2022-08-16T08:45:57.616Z,59.38
2022-08-16T08:48:33.744Z,58.79
2022-08-16T08:51:09.529Z,57.67
2022-08-16T08:54:10.406Z,57.75
2022-08-16T08:56:45.300Z,56.52
2022-08-16T08:59:34.703Z,56.20
2022-08-16T09:02:10.032Z,56.07
2022-08-16T09:04:47.821Z,55.92
2022-08-16T09:07:18.577Z,55.04
2022-08-16T09:09:48.563Z,54.42
2022-08-16T09:12:31.194Z,54.07
2022-08-16T09:15:13.625Z,55.11
2022-08-16T09:17:52.287Z,55.06
2022-08-16T09:20:27.664Z,55.14
2022-08-16T09:22:57.230Z,55.18
2022-08-16T09:25:34.414Z,55.32
2022-08-16T09:28:10.424Z,54.98
2022-08-16T09:30:55.743Z,54.48
2022-08-16T09:33:23.534Z,54.99
2022-08-16T09:35:53.877Z,54.97
2022-08-16T09:38:32.466Z,54.35
2022-08-16T09:41:03.830Z,53.42
2022-08-16T09:43:58.807Z,53.66
2022-08-16T09:46:45.064Z,53.70
2022-08-16T09:49:12.087Z,53.51
2022-08-16T09:51:40.412Z,52.74
2022-08-16T09:54:10.736Z,52.89
2022-08-16T09:56:52.208Z,53.30
2022-08-16T09:59:30.682Z,53.63
2022-08-16T10:02:00.882Z,53.41
2022-08-16T10:04:54.474Z,54.25
2022-08-16T10:07:43.971Z,53.97
2022-08-16T10:10:18.810Z,54.80
2022-08-16T10:13:16.564Z,54.93
2022-08-16T10:15:55.142Z,55.38
2022-08-16T10:18:56.319Z,55.54
2022-08-16T10:21:13.774Z,55.49
2022-08-16T10:23:46.669Z,55.62
2022-08-16T10:27:20.623Z,56.11
2022-08-16T10:29:06.179Z,56.37
2022-08-16T10:31:45.485Z,55.98
2022-08-16T10:34:30.801Z,56.38
2022-08-16T10:37:03.708Z,56.25
2022-08-16T10:39:40.673Z,56.14
2022-08-16T10:42:13.166Z,56.77
2022-08-16T10:44:42.283Z,56.91
2022-08-16T10:47:11.669Z,59.26
2022-08-16T10:49:39.658Z,63.38
2022-08-16T10:52:18.452Z,65.52
2022-08-16T10:57:35.383Z,68.56
2022-08-16T11:00:22.320Z,69.17
2022-08-16T11:03:41.872Z,70.72
2022-08-16T11:08:35.798Z,72.07
2022-08-16T11:11:12.867Z,71.86
2022-08-16T11:14:10.963Z,71.54
2022-08-16T11:19:25.851Z,69.98
2022-08-16T11:22:38.597Z,69.78
2022-08-16T11:24:45.468Z,69.32
2022-08-16T11:27:35.364Z,69.16
2022-08-16T11:30:08.992Z,68.84
2022-08-16T11:32:37.831Z,69.10
2022-08-16T11:35:14.674Z,69.60
2022-08-16T11:38:24.055Z,69.43
2022-08-16T11:40:57.355Z,69.41
2022-08-16T11:43:34.976Z,70.39
2022-08-16T11:46:45.161Z,69.87
2022-08-16T11:48:58.190Z,70.38
2022-08-16T11:51:25.987Z,70.63
2022-08-16T11:53:54.546Z,70.74
2022-08-16T11:56:37.848Z,71.74
2022-08-16T11:59:12.826Z,71.61
2022-08-16T12:01:44.167Z,71.97
2022-08-16T12:04:24.450Z,71.69
2022-08-16T12:06:54.609Z,70.73
2022-08-16T12:09:24.878Z,70.93
2022-08-16T12:12:02.913Z,71.17
2022-08-16T12:14:37.550Z,71.39
2022-08-16T12:17:08.480Z,71.20
2022-08-16T12:19:37.283Z,70.65
2022-08-16T12:22:18.984Z,70.12
2022-08-16T12:24:52.285Z,69.44
2022-08-16T12:27:25.959Z,68.63
2022-08-16T12:29:54.959Z,67.57
2022-08-16T12:32:39.566Z,67.51
2022-08-16T12:35:16.084Z,67.15
2022-08-16T12:37:47.291Z,67.47
2022-08-16T12:40:24.561Z,67.11
2022-08-16T12:42:59.123Z,67.58
2022-08-16T12:45:33.729Z,67.25
2022-08-16T12:48:42.183Z,66.71
2022-08-16T12:51:19.681Z,65.32
2022-08-16T12:53:51.715Z,64.36
2022-08-16T12:56:26.054Z,63.39
2022-08-16T12:58:56.713Z,62.68
2022-08-16T13:01:31.354Z,62.38
2022-08-16T13:04:11.866Z,62.66
2022-08-16T13:06:52.067Z,61.64
2022-08-16T13:09:26.410Z,61.84
2022-08-16T13:12:07.483Z,61.38
2022-08-16T13:14:42.983Z,60.63
2022-08-16T13:17:20.568Z,60.64
2022-08-16T13:20:09.774Z,60.13
2022-08-16T13:22:46.356Z,58.89
2022-08-16T13:25:21.131Z,58.17
2022-08-16T13:28:02.280Z,59.29
2022-08-16T13:30:44.156Z,59.10
2022-08-16T13:33:26.148Z,59.37
2022-08-16T13:36:00.895Z,58.52
2022-08-16T13:38:36.454Z,58.59
2022-08-16T13:41:12.437Z,58.21
2022-08-16T13:43:41.808Z,58.75
2022-08-16T13:46:10.041Z,59.11
2022-08-16T13:48:44.709Z,57.79
2022-08-16T13:51:18.472Z,56.98
2022-08-16T13:53:59.163Z,57.66
2022-08-16T13:56:38.161Z,57.13
2022-08-16T13:59:19.668Z,56.96
2022-08-16T14:01:59.786Z,57.38
2022-08-16T14:04:34.388Z,57.31
2022-08-16T14:07:08.945Z,56.77
2022-08-16T14:09:38.013Z,57.22
2022-08-16T14:12:24.241Z,56.84
2022-08-16T14:14:56.403Z,56.53
2022-08-16T14:17:27.857Z,57.56
2022-08-16T14:19:59.608Z,57.30
2022-08-16T14:22:35.702Z,56.75
2022-08-16T14:25:10.133Z,57.11
2022-08-16T14:27:42.131Z,57.10
2022-08-16T14:30:15.469Z,57.05
2022-08-16T14:32:49.606Z,57.43
2022-08-16T14:35:36.632Z,57.29
2022-08-16T14:38:18.174Z,57.35
2022-08-16T14:40:54.852Z,57.32
2022-08-16T14:43:26.025Z,57.59
2022-08-16T14:45:57.995Z,56.95
2022-08-16T14:48:26.749Z,56.99
2022-08-16T14:50:55.695Z,56.12
2022-08-16T14:53:26.446Z,56.57
2022-08-16T14:55:55.532Z,56.59
2022-08-16T14:58:34.467Z,55.76
2022-08-16T15:01:10.237Z,54.70
2022-08-16T15:03:38.934Z,55.08
2022-08-16T15:06:14.579Z,55.20
2022-08-16T15:08:45.190Z,55.90
2022-08-16T15:11:14.185Z,56.98
2022-08-16T15:13:42.118Z,58.21
2022-08-16T15:16:09.903Z,58.36
2022-08-16T15:18:39.312Z,58.84
2022-08-16T15:21:08.537Z,59.22
2022-08-16T15:23:36.943Z,58.69
2022-08-16T15:26:09.095Z,59.43
2022-08-16T15:28:38.504Z,58.52
2022-08-16T15:31:10.540Z,58.32
2022-08-16T15:33:51.039Z,58.94
2022-08-16T15:36:25.907Z,59.02
2022-08-16T15:39:06.900Z,59.17
2022-08-16T15:41:44.278Z,58.74
2022-08-16T15:44:22.117Z,59.29
2022-08-16T15:46:58.669Z,59.26
2022-08-16T15:49:32.924Z,59.70
2022-08-16T15:52:11.161Z,60.06
2022-08-16T15:54:52.295Z,59.64
2022-08-16T15:57:24.233Z,61.04
2022-08-16T15:59:56.342Z,60.93
2022-08-16T16:02:40.694Z,60.72
2022-08-16T16:05:10.195Z,61.40
2022-08-16T16:07:56.141Z,61.56
2022-08-16T16:10:29.292Z,61.89
2022-08-16T16:13:03.732Z,61.95
2022-08-16T16:15:47.182Z,62.30
2022-08-16T16:18:17.651Z,62.19
2022-08-16T16:20:59.361Z,62.30
2022-08-16T16:23:53.980Z,62.61
2022-08-16T16:26:26.838Z,62.47
2022-08-16T16:29:07.403Z,62.79
2022-08-16T16:31:44.188Z,62.94
2022-08-16T16:34:32.350Z,63.28
2022-08-16T16:37:04.278Z,63.61
2022-08-16T16:39:32.761Z,63.71
2022-08-16T16:42:00.706Z,63.95
2022-08-16T16:44:33.541Z,63.42
2022-08-16T16:47:04.226Z,63.15
2022-08-16T16:49:32.972Z,63.39
2022-08-16T16:52:07.069Z,63.73
2022-08-16T16:54:35.783Z,63.82
2022-08-16T16:57:04.204Z,63.71
2022-08-16T16:59:32.255Z,64.42
2022-08-16T17:02:41.844Z,64.79
2022-08-16T17:04:48.887Z,64.63
2022-08-16T17:07:17.580Z,65.29
2022-08-16T17:09:48.544Z,65.24
2022-08-16T17:12:25.143Z,65.47
2022-08-16T17:14:57.345Z,65.67
2022-08-16T17:17:25.272Z,65.86
2022-08-16T17:19:54.177Z,66.34
2022-08-16T17:22:23.460Z,66.59
2022-08-16T17:24:53.213Z,67.11
2022-08-16T17:27:33.019Z,66.97
2022-08-16T17:30:15.709Z,66.92
2022-08-16T17:32:50.707Z,66.98
2022-08-16T17:35:33.693Z,67.15
2022-08-16T17:38:09.438Z,66.71
2022-08-16T17:40:58.522Z,66.60
2022-08-16T17:43:36.107Z,66.49
2022-08-16T17:46:06.966Z,66.95
2022-08-16T17:48:56.104Z,66.66
2022-08-16T17:51:26.107Z,66.63
2022-08-16T17:53:55.075Z,66.66
2022-08-16T17:56:22.867Z,67.11
2022-08-16T17:58:50.614Z,66.77
2022-08-16T18:01:26.770Z,66.83
2022-08-16T18:04:08.833Z,66.83
2022-08-16T18:06:39.848Z,67.23
2022-08-16T18:09:08.684Z,67.42
2022-08-16T18:11:41.352Z,67.46
2022-08-16T18:14:13.159Z,67.57
2022-08-16T18:16:41.639Z,67.39
2022-08-16T18:19:10.693Z,67.47
2022-08-16T18:21:57.545Z,67.67
2022-08-16T18:24:29.332Z,67.79
2022-08-16T18:27:25.339Z,67.61
2022-08-16T18:29:47.239Z,67.78
2022-08-16T18:32:21.976Z,67.69
2022-08-16T18:34:54.796Z,67.85
2022-08-16T18:37:23.981Z,68.19
2022-08-16T18:39:52.014Z,68.37
2022-08-16T18:42:20.940Z,68.33
2022-08-16T18:44:49.142Z,68.62
2022-08-16T18:47:16.943Z,68.46
2022-08-16T18:49:44.990Z,68.57
2022-08-16T18:52:25.631Z,68.88
2022-08-16T18:55:02.982Z,69.25
2022-08-16T18:57:42.704Z,69.43
2022-08-16T19:00:14.679Z,69.32
2022-08-16T19:02:58.348Z,69.51
2022-08-16T19:05:30.835Z,69.19
2022-08-16T19:07:58.931Z,69.07
2022-08-16T19:10:27.096Z,68.89
2022-08-16T19:12:55.375Z,69.27
2022-08-16T19:15:28.874Z,69.46
2022-08-16T19:17:57.138Z,69.62
2022-08-16T19:20:27.413Z,69.75
2022-08-16T19:23:05.185Z,69.44
2022-08-16T19:25:47.063Z,69.33
2022-08-16T19:28:51.734Z,69.68
2022-08-16T19:31:32.745Z,69.64
2022-08-16T19:34:03.874Z,69.59
2022-08-16T19:36:36.902Z,69.82
2022-08-16T19:39:13.627Z,69.75
2022-08-16T19:41:52.115Z,69.97
2022-08-16T19:44:23.233Z,70.17
2022-08-16T19:46:51.414Z,70.45
2022-08-16T19:49:19.404Z,72.21
2022-08-16T19:51:48.079Z,74.90
2022-08-16T19:54:16.474Z,76.25
2022-08-16T19:56:44.314Z,77.17
2022-08-16T19:59:19.454Z,77.77
2022-08-16T20:01:52.427Z,78.52
2022-08-16T20:04:23.593Z,78.91
2022-08-16T20:06:53.859Z,79.41
2022-08-16T20:09:23.380Z,79.64
2022-08-16T20:11:53.637Z,80.01
2022-08-16T20:14:25.378Z,80.26
2022-08-16T20:16:57.413Z,80.30
2022-08-16T20:19:35.239Z,80.67
2022-08-16T20:22:35.594Z,80.69
2022-08-16T20:25:10.527Z,80.98
2022-08-16T20:27:40.379Z,80.93
2022-08-16T20:30:11.873Z,81.10
2022-08-16T20:32:40.726Z,81.09
2022-08-16T20:35:11.819Z,81.47
2022-08-16T20:37:42.319Z,81.49
2022-08-16T20:40:29.679Z,81.55
2022-08-16T20:43:09.738Z,81.94
2022-08-16T20:45:39.983Z,82.22
2022-08-16T20:48:08.100Z,82.48
2022-08-16T20:50:37.431Z,82.48
2022-08-16T20:53:07.027Z,82.04
2022-08-16T20:55:37.765Z,82.10
2022-08-16T20:58:06.132Z,82.47
2022-08-16T21:00:34.069Z,82.68
2022-08-16T21:03:08.700Z,82.57
2022-08-16T21:05:37.115Z,82.73
2022-08-16T21:08:50.569Z,82.72
2022-08-16T21:10:54.423Z,82.77
2022-08-16T21:13:25.344Z,82.69
2022-08-16T21:15:53.397Z,82.87
2022-08-16T21:18:21.168Z,83.01
2022-08-16T21:20:48.984Z,83.06
2022-08-16T21:23:17.503Z,82.82
2022-08-16T21:25:52.749Z,82.91
2022-08-16T21:28:41.430Z,83.10
2022-08-16T21:31:17.229Z,83.13
2022-08-16T21:33:55.383Z,83.44
2022-08-16T21:36:34.956Z,83.53
2022-08-16T21:39:06.367Z,83.40
2022-08-16T21:41:38.385Z,83.53
2022-08-16T21:44:06.457Z,83.63
2022-08-16T21:46:34.472Z,83.73
2022-08-16T21:49:04.587Z,83.80
2022-08-16T21:51:32.411Z,83.93
2022-08-16T21:54:00.285Z,84.12
2022-08-16T21:56:28.979Z,84.10
2022-08-16T21:58:57.032Z,84.03
2022-08-16T22:01:24.981Z,83.93
2022-08-16T22:04:03.660Z,84.15
2022-08-16T22:06:43.265Z,84.07
2022-08-16T22:09:15.695Z,83.88
2022-08-16T22:11:44.902Z,83.81
2022-08-16T22:14:12.887Z,84.01
2022-08-16T22:16:42.201Z,84.49
2022-08-16T22:19:11.647Z,84.04
2022-08-16T22:21:39.596Z,83.91
2022-08-16T22:24:07.881Z,83.84
2022-08-16T22:26:42.302Z,84.01
2022-08-16T22:29:13.839Z,84.12
2022-08-16T22:31:44.375Z,83.99
2022-08-16T22:34:14.024Z,83.98
2022-08-16T22:36:42.596Z,83.91
2022-08-16T22:39:13.385Z,84.05
2022-08-16T22:41:45.343Z,84.11
2022-08-16T22:44:14.484Z,84.19
2022-08-16T22:46:43.053Z,84.46
2022-08-16T22:49:12.366Z,84.48
2022-08-16T22:51:41.224Z,84.45
2022-08-16T22:54:45.888Z,84.45
2022-08-16T22:56:57.694Z,84.53
2022-08-16T22:59:25.543Z,84.71
2022-08-16T23:01:53.597Z,84.64
2022-08-16T23:04:23.987Z,84.91
2022-08-16T23:06:52.248Z,85.26
2022-08-16T23:09:20.928Z,85.28
2022-08-16T23:11:49.056Z,85.33
2022-08-16T23:14:17.484Z,85.33
2022-08-16T23:16:47.297Z,85.39
2022-08-16T23:19:16.847Z,85.52
2022-08-16T23:21:47.162Z,85.19
2022-08-16T23:24:20.354Z,85.16
2022-08-16T23:26:49.323Z,85.01
2022-08-16T23:29:24.732Z,84.84
2022-08-16T23:32:08.807Z,84.70
2022-08-16T23:34:36.748Z,84.80
2022-08-16T23:37:04.610Z,84.66
2022-08-16T23:39:32.835Z,84.82
2022-08-16T23:42:00.770Z,85.02
2022-08-16T23:44:55.176Z,85.22
2022-08-16T23:47:16.423Z,85.33
2022-08-16T23:50:01.223Z,85.44
2022-08-16T23:52:38.441Z,85.63
2022-08-16T23:55:18.291Z,85.47
2022-08-16T23:57:47.513Z,85.43
